CheckWX is a tool to help pilots better visualize weather data.  It is not intended as a substitute for an official pre-flight weather briefing.

13:27:38 UTC

KAIZ METAR
Lee C Fine Memorial Airport
Kaiser/Lake Ozark, Missouri, USA
Current

32 mins ago

KAIZ 271256Z AUTO 00000KT 1/4SM FZFG OVC001 M04/M04 A2999 RMK AO2 SLP162 T10391044 FZRANO
Observed
Jan-27 @ 12:56 UTC
Visibility
1/4 SM
Flight Rules
LIFR
Conditions
Freezing Fog
Cloud Levels
  • Overcast at 100' AGL
Temperature
-4°C / 25°F
Dewpoint
-4°C / 25°F
Humidity
100%
Altimeter
29.99" Hg
Pressure
1015.62 hPa
Previous

1 hour ago

KAIZ 271227Z AUTO 19004KT 1/4SM FZFG BKN001 M04/M05 A2998 RMK AO2 FZRANO
Observed
Jan-27 @ 12:27 UTC
Wind
  • 190° at 4 KTS
Visibility
1/4 SM
Flight Rules
LIFR
Conditions
Freezing Fog
Cloud Levels
  • Broken at 100' AGL
Temperature
-4°C / 25°F
Dewpoint
-5°C / 23°F
Humidity
93%
Altimeter
29.98" Hg
Pressure
1015.22 hPa
Previous

1 hour ago

KAIZ 271219Z AUTO 18004KT 1 1/2SM BR BKN001 M04/M05 A2998 RMK AO2 VIS 1/2V3 FZRANO
Observed
Jan-27 @ 12:19 UTC
Wind
  • 180° at 4 KTS
Visibility
1 1/2 SM
Flight Rules
LIFR
Conditions
Mist
Cloud Levels
  • Broken at 100' AGL
Temperature
-4°C / 25°F
Dewpoint
-5°C / 23°F
Humidity
93%
Altimeter
29.98" Hg
Pressure
1015.22 hPa